Time;durP1;ratioP1;P1;durP2;ratioP2;P2;SDS_P1;SDS_P2;PMS_P1;PMS_P2;Temp;Humidity;BMP_temperature;BMP_pressure;BME280_temperature;BME280_humidity;BME280_pressure;Samples;Min_cycle;Max_cycle;Signal;HPM_P1;HPM_P2
2022/04/21 00:23:40;;;;;;;2.40;2.10;;;;;;;;;;4054383;32;20102;-62
2022/04/21 00:26:07;;;;;;;5.90;2.58;;;;;;;;;;4163034;34;20139;-64
2022/04/21 00:28:33;;;;;;;4.30;2.67;;;;;;;;;;4150617;34;20138;-63
2022/04/21 00:30:59;;;;;;;4.62;2.08;;;;;;;;;;4150608;34;20125;-62
2022/04/21 00:33:25;;;;;;;2.35;1.87;;;;;;;;;;4148867;34;20111;-65
2022/04/21 00:35:51;;;;;;;2.15;1.95;;;;;;;;;;4150521;34;20115;-64
2022/04/21 00:38:17;;;;;;;1.67;1.58;;;;;;;;;;4150676;34;20527;-64
2022/04/21 00:40:43;;;;;;;2.50;2.05;;;;;;;;;;4150335;34;20107;-62
2022/04/21 00:43:09;;;;;;;3.20;2.00;;;;;;;;;;4150495;34;20194;-62
2022/04/21 00:45:35;;;;;;;2.20;2.00;;;;;;;;;;4150594;34;20095;-62
2022/04/21 00:48:02;;;;;;;2.30;1.85;;;;;;;;;;4150445;34;20214;-62
2022/04/21 00:50:35;;;;;;;1.95;1.80;;;;;;;;;;4137798;34;20114;-62
2022/04/21 00:53:01;;;;;;;2.25;1.92;;;;;;;;;;4137754;34;20554;-62
2022/04/21 00:55:27;;;;;;;1.70;1.60;;;;;;;;;;4149118;34;20295;-62
2022/04/21 00:57:54;;;;;;;1.92;1.60;;;;;;;;;;4150171;34;20492;-63
2022/04/21 01:00:20;;;;;;;1.83;1.62;;;;;;;;;;4137664;34;20134;-63
2022/04/21 01:02:46;;;;;;;1.92;1.70;;;;;;;;;;4137975;34;20122;-64
2022/04/21 01:05:29;;;;;;;2.10;1.90;;;;;;;;;;4150151;34;20095;-63
2022/04/21 01:07:59;;;;;;;1.87;1.77;;;;;;;;;;4150371;34;20480;-63
2022/04/21 01:10:26;;;;;;;2.42;1.87;;;;;;;;;;4150210;34;20087;-63
2022/04/21 01:12:53;;;;;;;2.10;1.90;;;;;;;;;;4150324;34;20135;-63
2022/04/21 01:15:19;;;;;;;2.42;2.22;;;;;;;;;;4137559;34;20106;-63
2022/04/21 01:17:45;;;;;;;3.17;2.10;;;;;;;;;;4150152;34;20114;-63
2022/04/21 01:20:16;;;;;;;2.60;2.25;;;;;;;;;;4136809;34;20521;-64
2022/04/21 01:22:42;;;;;;;2.55;2.35;;;;;;;;;;4150320;34;20138;-63
2022/04/21 01:25:08;;;;;;;2.47;2.22;;;;;;;;;;4149845;34;20842;-64
2022/04/21 01:27:37;;;;;;;2.60;2.40;;;;;;;;;;4150424;34;20138;-63
2022/04/21 01:30:05;;;;;;;2.50;2.30;;;;;;;;;;4137379;34;20103;-62
2022/04/21 01:32:35;;;;;;;2.70;2.50;;;;;;;;;;4150089;34;20131;-62
2022/04/21 01:35:08;;;;;;;3.10;2.62;;;;;;;;;;4137786;34;20210;-62
2022/04/21 01:43:04;;;;;;;3.65;2.55;;;;;;;;;;4149961;34;20279;-62
2022/04/21 01:45:30;;;;;;;2.17;1.98;;;;;;;;;;4148665;34;20437;-61
2022/04/21 01:47:56;;;;;;;3.72;2.20;;;;;;;;;;4137566;34;20123;-62
2022/04/21 01:50:24;;;;;;;2.33;2.10;;;;;;;;;;4149754;34;20127;-61
2022/04/21 01:52:50;;;;;;;3.83;2.65;;;;;;;;;;4149876;34;20102;-62
2022/04/21 01:55:16;;;;;;;4.95;2.22;;;;;;;;;;4150082;34;20202;-61
2022/04/21 01:57:42;;;;;;;2.60;2.00;;;;;;;;;;4150192;34;20444;-62
2022/04/21 02:00:08;;;;;;;3.40;2.50;;;;;;;;;;4149626;34;20611;-62
2022/04/21 02:02:34;;;;;;;4.65;2.62;;;;;;;;;;4149898;34;20184;-62
2022/04/21 02:05:01;;;;;;;4.68;3.08;;;;;;;;;;4137021;34;20087;-62
2022/04/21 02:07:27;;;;;;;5.40;3.17;;;;;;;;;;4137432;34;20749;-62
2022/04/21 02:09:55;;;;;;;4.45;2.72;;;;;;;;;;4149509;34;20558;-62
2022/04/21 02:12:22;;;;;;;4.68;3.28;;;;;;;;;;4148445;34;20106;-62
2022/04/21 02:14:48;;;;;;;3.30;2.60;;;;;;;;;;4149459;34;20134;-62
2022/04/21 02:17:14;;;;;;;3.12;2.42;;;;;;;;;;4149965;34;20108;-63
2022/04/21 02:19:41;;;;;;;4.40;2.42;;;;;;;;;;4149539;34;20114;-63
2022/04/21 02:22:07;;;;;;;3.40;2.50;;;;;;;;;;4149603;34;20115;-63
2022/04/21 02:24:33;;;;;;;4.70;3.08;;;;;;;;;;4149553;34;20552;-63
2022/04/21 02:26:59;;;;;;;3.95;3.08;;;;;;;;;;4149725;34;20119;-63
2022/04/21 02:29:25;;;;;;;5.62;3.62;;;;;;;;;;4136719;34;20115;-63
2022/04/21 02:31:50;;;;;;;4.55;3.03;;;;;;;;;;4141351;34;20114;-63
2022/04/21 02:34:17;;;;;;;6.47;3.80;;;;;;;;;;4154013;34;20103;-63
2022/04/21 02:36:42;;;;;;;9.18;5.18;;;;;;;;;;4153981;34;20511;-62
2022/04/21 02:39:08;;;;;;;9.77;5.60;;;;;;;;;;4141244;34;20130;-62
2022/04/21 02:41:34;;;;;;;9.88;4.20;;;;;;;;;;4141436;34;20207;-62
2022/04/21 02:44:01;;;;;;;7.87;5.45;;;;;;;;;;4154019;34;20198;-63
2022/04/21 02:46:30;;;;;;;7.47;4.45;;;;;;;;;;4153802;34;20528;-63
2022/04/21 02:48:57;;;;;;;8.30;5.07;;;;;;;;;;4153754;34;20231;-63
2022/04/21 02:51:23;;;;;;;5.72;3.35;;;;;;;;;;4153878;34;20209;-63
2022/04/21 02:59:18;;;;;;;6.10;3.83;;;;;;;;;;4152706;34;20125;-63
2022/04/21 03:01:44;;;;;;;2.83;2.58;;;;;;;;;;4153992;34;20328;-64
2022/04/21 03:04:10;;;;;;;4.00;2.67;;;;;;;;;;4141030;34;20130;-63
2022/04/21 03:06:36;;;;;;;3.58;2.75;;;;;;;;;;4153551;34;20224;-63
2022/04/21 03:09:02;;;;;;;4.18;2.53;;;;;;;;;;4140954;34;20111;-62
2022/04/21 03:11:28;;;;;;;3.42;2.70;;;;;;;;;;4141029;34;20123;-62
2022/04/21 03:13:54;;;;;;;2.92;2.65;;;;;;;;;;4153376;34;20221;-62
2022/04/21 03:16:20;;;;;;;5.87;2.60;;;;;;;;;;4153457;34;20228;-62
2022/04/21 03:18:46;;;;;;;2.90;2.60;;;;;;;;;;4153440;34;20139;-63
2022/04/21 03:26:40;;;;;;;10.30;5.25;;;;;;;;;;4153466;34;20216;-62
2022/04/21 03:29:06;;;;;;;8.73;5.10;;;;;;;;;;4153552;34;20403;-62
2022/04/21 03:31:32;;;;;;;10.35;5.57;;;;;;;;;;4153266;34;20159;-63
2022/04/21 03:33:58;;;;;;;15.10;7.93;;;;;;;;;;4153184;34;20096;-63
2022/04/21 03:36:24;;;;;;;12.02;7.35;;;;;;;;;;4153343;34;20597;-62
2022/04/21 03:38:50;;;;;;;15.75;8.55;;;;;;;;;;4153293;34;20083;-62
2022/04/21 03:41:16;;;;;;;7.82;5.87;;;;;;;;;;4150202;34;20131;-62
2022/04/21 03:43:42;;;;;;;7.00;3.47;;;;;;;;;;4150445;34;20187;-63
2022/04/21 03:46:08;;;;;;;5.22;3.47;;;;;;;;;;4150731;34;20556;-64
2022/04/21 03:48:34;;;;;;;3.95;2.65;;;;;;;;;;4150795;34;20222;-64
2022/04/21 03:51:00;;;;;;;2.67;2.47;;;;;;;;;;4151015;34;20200;-68
2022/04/21 03:53:26;;;;;;;4.62;3.03;;;;;;;;;;4150512;34;20203;-62
2022/04/21 03:55:52;;;;;;;3.90;2.70;;;;;;;;;;4150801;34;20470;-61
2022/04/21 03:58:18;;;;;;;3.10;2.78;;;;;;;;;;4150565;34;20134;-60
2022/04/21 04:00:44;;;;;;;2.72;2.53;;;;;;;;;;4150802;34;20153;-60
2022/04/21 04:03:10;;;;;;;3.30;2.67;;;;;;;;;;4150338;34;20138;-59
2022/04/21 04:05:36;;;;;;;3.25;2.70;;;;;;;;;;4150676;34;20102;-60
2022/04/21 04:10:53;;;;;;;4.97;2.92;;;;;;;;;;4150728;34;20114;-60
2022/04/21 04:13:20;;;;;;;5.15;3.28;;;;;;;;;;4150565;34;20134;-60
2022/04/21 04:15:48;;;;;;;5.82;3.50;;;;;;;;;;4150747;34;20107;-60
2022/04/21 04:18:16;;;;;;;8.27;4.22;;;;;;;;;;4150739;34;20127;-60
2022/04/21 04:20:43;;;;;;;10.13;4.68;;;;;;;;;;4150629;34;20118;-60
2022/04/21 04:23:09;;;;;;;5.90;3.72;;;;;;;;;;4150590;34;20527;-60
2022/04/21 04:25:35;;;;;;;9.93;4.80;;;;;;;;;;4150399;34;20155;-60
2022/04/21 04:28:04;;;;;;;10.18;4.85;;;;;;;;;;4149033;34;20134;-61
2022/04/21 04:30:30;;;;;;;11.12;5.85;;;;;;;;;;4150486;34;20210;-60
2022/04/21 04:32:56;;;;;;;9.07;5.07;;;;;;;;;;4150167;34;20551;-61
2022/04/21 04:35:22;;;;;;;7.53;4.95;;;;;;;;;;4150346;34;20106;-60
2022/04/21 04:37:48;;;;;;;11.05;6.82;;;;;;;;;;4150822;34;20091;-61
2022/04/21 04:40:14;;;;;;;11.02;7.32;;;;;;;;;;4150472;34;20157;-61
2022/04/21 04:42:40;;;;;;;17.33;8.68;;;;;;;;;;4150484;34;20542;-61
2022/04/21 04:47:51;;;;;;;19.52;10.45;;;;;;;;;;4150516;34;20131;-60
2022/04/21 04:50:17;;;;;;;17.23;10.98;;;;;;;;;;4150158;34;20111;-61
2022/04/21 04:52:44;;;;;;;14.38;7.75;;;;;;;;;;4150340;34;20134;-60
2022/04/21 04:55:11;;;;;;;14.63;9.52;;;;;;;;;;4150225;34;20110;-61
2022/04/21 04:57:40;;;;;;;21.90;11.38;;;;;;;;;;4150619;34;20153;-61
2022/04/21 05:00:08;;;;;;;21.48;12.77;;;;;;;;;;4150277;34;20186;-61
2022/04/21 05:02:35;;;;;;;23.02;15.90;;;;;;;;;;4137911;34;20187;-61
2022/04/21 05:05:01;;;;;;;16.73;12.15;;;;;;;;;;4150091;34;20103;-61
2022/04/21 05:07:27;;;;;;;9.95;7.57;;;;;;;;;;4148868;34;20566;-61
2022/04/21 05:09:53;;;;;;;9.40;7.65;;;;;;;;;;4150181;34;20127;-61
2022/04/21 05:12:20;;;;;;;6.05;4.57;;;;;;;;;;4150289;34;20146;-61
2022/04/21 05:14:46;;;;;;;6.62;4.40;;;;;;;;;;4150023;34;20550;-60
2022/04/21 05:17:12;;;;;;;3.30;2.97;;;;;;;;;;4150246;34;20153;-62
2022/04/21 05:19:38;;;;;;;4.12;2.95;;;;;;;;;;4150313;34;20226;-62
2022/04/21 05:22:04;;;;;;;4.62;3.62;;;;;;;;;;4150083;34;20149;-62
2022/04/21 05:24:31;;;;;;;4.00;3.10;;;;;;;;;;4149980;34;20469;-61
2022/04/21 05:26:58;;;;;;;3.00;2.70;;;;;;;;;;4150363;34;20100;-61
2022/04/21 05:32:09;;;;;;;7.50;5.15;;;;;;;;;;4150068;34;20519;-62
2022/04/21 05:34:35;;;;;;;3.85;3.30;;;;;;;;;;4149934;34;20130;-62
2022/04/21 05:37:02;;;;;;;6.53;5.55;;;;;;;;;;4149905;34;20131;-62
2022/04/21 05:39:29;;;;;;;11.82;7.35;;;;;;;;;;4150061;34;20106;-61
2022/04/21 05:41:57;;;;;;;9.32;6.25;;;;;;;;;;4149999;34;20516;-60
2022/04/21 05:44:24;;;;;;;10.43;8.02;;;;;;;;;;4150083;34;20107;-61
2022/04/21 05:46:50;;;;;;;10.85;7.70;;;;;;;;;;4149838;34;20126;-61
2022/04/21 05:49:17;;;;;;;9.32;6.95;;;;;;;;;;4149794;34;20504;-62
2022/04/21 05:51:46;;;;;;;9.88;7.00;;;;;;;;;;4150109;34;20126;-60
2022/04/21 05:54:14;;;;;;;11.52;7.85;;;;;;;;;;4149680;34;20105;-61
2022/04/21 05:56:40;;;;;;;7.65;5.40;;;;;;;;;;4149777;34;20130;-62
2022/04/21 05:59:06;;;;;;;12.80;6.82;;;;;;;;;;4149660;34;20091;-61
2022/04/21 06:01:32;;;;;;;13.60;7.32;;;;;;;;;;4149708;34;20226;-62
2022/04/21 06:03:58;;;;;;;9.73;6.25;;;;;;;;;;4149685;34;20102;-59
2022/04/21 06:06:24;;;;;;;11.50;6.82;;;;;;;;;;4148907;34;20116;-62
2022/04/21 06:08:50;;;;;;;19.37;10.15;;;;;;;;;;4149885;34;20105;-61
2022/04/21 06:11:16;;;;;;;17.65;9.45;;;;;;;;;;4149805;34;20137;-61
2022/04/21 06:13:42;;;;;;;6.85;4.55;;;;;;;;;;4149483;34;20815;-62
2022/04/21 06:16:09;;;;;;;5.05;4.28;;;;;;;;;;4149539;34;20107;-62
2022/04/21 06:18:36;;;;;;;7.70;5.20;;;;;;;;;;4149678;34;20087;-62
2022/04/21 06:21:03;;;;;;;7.85;3.90;;;;;;;;;;4149444;34;20119;-61
2022/04/21 06:23:31;;;;;;;6.03;4.60;;;;;;;;;;4149462;34;20507;-62
2022/04/21 06:26:00;;;;;;;5.62;3.80;;;;;;;;;;4147934;34;20165;-61
2022/04/21 06:28:28;;;;;;;8.23;3.87;;;;;;;;;;4149492;34;20130;-61
2022/04/21 06:30:54;;;;;;;4.85;3.90;;;;;;;;;;4149300;34;20489;-61
2022/04/21 06:33:20;;;;;;;6.30;4.35;;;;;;;;;;4149508;34;20217;-61
2022/04/21 06:35:46;;;;;;;6.97;5.20;;;;;;;;;;4149381;34;20203;-61
2022/04/21 06:38:12;;;;;;;5.12;4.57;;;;;;;;;;4149477;34;20218;-61
2022/04/21 06:40:38;;;;;;;12.50;7.55;;;;;;;;;;4149149;34;20563;-63
2022/04/21 06:48:40;;;;;;;7.35;4.35;;;;;;;;;;4149509;34;20194;-62
2022/04/21 06:51:07;;;;;;;5.62;4.57;;;;;;;;;;4149443;34;20142;-62
2022/04/21 06:53:34;;;;;;;7.50;4.97;;;;;;;;;;4149050;34;20190;-62
2022/04/21 06:56:01;;;;;;;6.25;4.47;;;;;;;;;;4149236;34;20134;-61
2022/04/21 06:58:28;;;;;;;4.03;3.33;;;;;;;;;;4149138;34;20096;-62
2022/04/21 07:00:54;;;;;;;6.20;4.03;;;;;;;;;;4149045;34;20100;-60
2022/04/21 07:03:20;;;;;;;7.20;4.55;;;;;;;;;;4149201;34;20115;-60
2022/04/21 07:05:46;;;;;;;6.20;4.45;;;;;;;;;;4149069;34;20555;-61
2022/04/21 07:08:13;;;;;;;14.23;7.05;;;;;;;;;;4149034;34;20099;-61
2022/04/21 07:10:39;;;;;;;13.68;8.15;;;;;;;;;;4149035;34;20439;-61
2022/04/21 07:13:11;;;;;;;11.77;6.75;;;;;;;;;;4149085;34;20190;-63
2022/04/21 07:15:41;;;;;;;12.05;6.70;;;;;;;;;;4147647;34;20203;-60
2022/04/21 07:18:08;;;;;;;12.30;6.18;;;;;;;;;;4137560;34;20558;-60
2022/04/21 07:20:34;;;;;;;10.40;5.97;;;;;;;;;;4151079;34;20111;-60
2022/04/21 07:23:01;;;;;;;5.82;4.68;;;;;;;;;;4151146;34;20135;-60
2022/04/21 07:25:27;;;;;;;9.10;4.70;;;;;;;;;;4150788;34;20099;-61
2022/04/21 07:27:54;;;;;;;5.50;3.55;;;;;;;;;;4151094;34;20203;-60
2022/04/21 07:30:20;;;;;;;6.35;4.87;;;;;;;;;;4138293;34;20096;-60
2022/04/21 07:32:47;;;;;;;6.20;4.12;;;;;;;;;;4149645;34;20107;-60
2022/04/21 07:35:13;;;;;;;3.90;3.37;;;;;;;;;;4151100;34;20130;-63
2022/04/21 07:37:39;;;;;;;5.55;3.60;;;;;;;;;;4150462;34;20123;-62
2022/04/21 07:40:06;;;;;;;5.82;3.80;;;;;;;;;;4151029;34;20218;-62
2022/04/21 07:42:32;;;;;;;4.78;3.70;;;;;;;;;;4150327;34;20616;-62
2022/04/21 07:44:59;;;;;;;6.07;4.60;;;;;;;;;;4137640;34;20122;-63
2022/04/21 07:47:25;;;;;;;6.57;5.15;;;;;;;;;;4150734;34;20134;-63
2022/04/21 07:49:51;;;;;;;6.40;4.20;;;;;;;;;;4150757;34;20100;-64
2022/04/21 07:55:17;;;;;;;6.45;4.75;;;;;;;;;;4160283;34;20102;-62
2022/04/21 07:57:45;;;;;;;6.80;4.37;;;;;;;;;;4151424;34;20115;-64
2022/04/21 08:00:12;;;;;;;5.47;4.78;;;;;;;;;;4151388;34;20590;-67
2022/04/21 08:02:40;;;;;;;8.18;4.37;;;;;;;;;;4163931;34;20227;-65
2022/04/21 08:05:07;;;;;;;5.72;4.37;;;;;;;;;;4149374;34;20156;-63
2022/04/21 08:07:34;;;;;;;4.05;3.22;;;;;;;;;;4149519;34;20550;-64
2022/04/21 08:10:10;;;;;;;4.28;3.12;;;;;;;;;;4137897;34;20091;-65
2022/04/21 08:12:46;;;;;;;3.90;3.28;;;;;;;;;;4137456;34;20146;-64
2022/04/21 08:15:28;;;;;;;10.77;4.45;;;;;;;;;;4137871;34;20174;-63
2022/04/21 08:17:56;;;;;;;4.85;3.85;;;;;;;;;;4150510;34;20609;-62
2022/04/21 08:20:23;;;;;;;8.70;4.55;;;;;;;;;;4149219;34;20111;-64
2022/04/21 08:22:49;;;;;;;6.30;4.55;;;;;;;;;;4150737;34;20238;-65
2022/04/21 08:33:28;;;;;;;9.80;6.65;;;;;;;;;;4150373;34;20125;-71
2022/04/21 08:35:58;;;;;;;24.45;8.60;;;;;;;;;;4138031;34;20519;-70
2022/04/21 08:38:25;;;;;;;22.98;8.38;;;;;;;;;;4138336;34;20114;-65
2022/04/21 08:40:51;;;;;;;21.12;6.65;;;;;;;;;;4150416;34;20122;-64
2022/04/21 08:43:18;;;;;;;12.90;5.78;;;;;;;;;;4150666;34;20126;-65
2022/04/21 08:45:45;;;;;;;10.85;4.53;;;;;;;;;;4141364;34;20118;-64
2022/04/21 08:48:12;;;;;;;6.93;4.12;;;;;;;;;;4139237;34;20188;-64
2022/04/21 08:50:39;;;;;;;6.03;4.12;;;;;;;;;;4136849;34;20111;-62
2022/04/21 08:53:06;;;;;;;5.87;3.45;;;;;;;;;;4136968;34;20138;-63
2022/04/21 08:55:32;;;;;;;4.82;3.60;;;;;;;;;;4124438;34;20200;-64
2022/04/21 08:57:59;;;;;;;4.95;4.12;;;;;;;;;;4124577;34;20472;-63
2022/04/21 09:00:26;;;;;;;6.07;4.32;;;;;;;;;;4146535;34;20112;-63
2022/04/21 09:02:53;;;;;;;4.53;3.55;;;;;;;;;;4124263;34;20595;-63
2022/04/21 09:05:22;;;;;;;5.37;3.42;;;;;;;;;;4136892;34;20118;-63
2022/04/21 09:07:49;;;;;;;3.65;3.17;;;;;;;;;;4142210;34;20741;-63
2022/04/21 09:10:16;;;;;;;3.90;2.78;;;;;;;;;;4144580;34;20277;-63
2022/04/21 09:12:42;;;;;;;5.10;2.47;;;;;;;;;;4145977;34;20772;-62
2022/04/21 09:15:12;;;;;;;4.97;2.90;;;;;;;;;;4145824;34;20235;-62
2022/04/21 09:17:51;;;;;;;3.55;2.95;;;;;;;;;;4133502;34;20146;-63
2022/04/21 09:20:21;;;;;;;3.65;2.95;;;;;;;;;;4145899;34;20111;-64
2022/04/21 09:22:52;;;;;;;2.87;2.50;;;;;;;;;;4147695;34;20100;-63
2022/04/21 09:25:23;;;;;;;4.78;2.67;;;;;;;;;;4148598;34;20123;-64
2022/04/21 09:27:49;;;;;;;3.97;3.17;;;;;;;;;;4150034;34;20460;-66
2022/04/21 09:30:16;;;;;;;4.07;2.92;;;;;;;;;;4150196;34;20142;-67
2022/04/21 09:32:55;;;;;;;4.90;3.30;;;;;;;;;;4148736;34;20104;-67
2022/04/21 09:35:37;;;;;;;3.62;2.50;;;;;;;;;;4148571;34;20127;-66
2022/04/21 09:38:04;;;;;;;3.08;2.78;;;;;;;;;;4150044;34;20112;-64
2022/04/21 09:40:31;;;;;;;3.42;2.83;;;;;;;;;;4149219;34;20215;-64
2022/04/21 09:42:59;;;;;;;3.40;2.65;;;;;;;;;;4148834;34;20091;-65
2022/04/21 09:48:28;;;;;;;4.45;2.37;;;;;;;;;;4148567;34;20095;-64
2022/04/21 09:50:55;;;;;;;3.90;2.60;;;;;;;;;;4150168;34;20122;-65
2022/04/21 09:53:23;;;;;;;3.75;2.85;;;;;;;;;;4149721;34;20444;-65
2022/04/21 09:56:07;;;;;;;4.40;3.10;;;;;;;;;;4149924;34;20487;-64
2022/04/21 09:58:38;;;;;;;5.65;3.20;;;;;;;;;;4149737;34;20098;-64
2022/04/21 10:01:04;;;;;;;4.20;3.10;;;;;;;;;;4149869;34;20095;-66
2022/04/21 10:03:34;;;;;;;3.90;3.15;;;;;;;;;;4137383;34;20187;-63
2022/04/21 10:06:01;;;;;;;4.82;3.37;;;;;;;;;;4149898;34;20129;-61
2022/04/21 10:08:29;;;;;;;3.92;3.30;;;;;;;;;;4149405;34;20538;-59
2022/04/21 10:10:56;;;;;;;5.07;2.90;;;;;;;;;;4149684;34;20112;-59
2022/04/21 10:13:23;;;;;;;6.50;2.80;;;;;;;;;;4149518;34;20125;-59
2022/04/21 10:15:51;;;;;;;7.37;3.28;;;;;;;;;;4149687;34;20204;-62
2022/04/21 10:18:17;;;;;;;4.78;4.28;;;;;;;;;;4149529;34;20114;-66
2022/04/21 10:20:47;;;;;;;5.40;4.87;;;;;;;;;;4137103;34;20207;-62
2022/04/21 10:23:16;;;;;;;4.18;3.62;;;;;;;;;;4137255;34;20092;-62
2022/04/21 10:25:45;;;;;;;3.47;2.95;;;;;;;;;;4148285;34;20468;-64
2022/04/21 10:28:30;;;;;;;3.25;2.95;;;;;;;;;;4149423;34;20099;-62
2022/04/21 10:31:33;;;;;;;3.10;2.40;;;;;;;;;;4139859;34;20467;-62
2022/04/21 10:34:04;;;;;;;3.03;2.40;;;;;;;;;;4148016;34;20137;-61
2022/04/21 10:36:35;;;;;;;3.62;2.40;;;;;;;;;;4149498;34;20213;-62
2022/04/21 10:39:16;;;;;;;3.95;2.40;;;;;;;;;;4149414;34;20527;-62
2022/04/21 10:41:42;;;;;;;2.78;2.45;;;;;;;;;;4149422;34;20433;-64
2022/04/21 10:44:15;;;;;;;3.78;2.42;;;;;;;;;;4149292;34;20107;-67
2022/04/21 10:46:42;;;;;;;3.17;2.87;;;;;;;;;;4147914;34;20218;-63
2022/04/21 10:49:09;;;;;;;4.75;3.03;;;;;;;;;;4135617;34;20115;-61
2022/04/21 10:57:41;;;;;;;3.70;2.60;;;;;;;;;;4143550;34;20209;-62
2022/04/21 11:00:11;;;;;;;3.03;2.72;;;;;;;;;;4151059;34;20539;-61
2022/04/21 11:02:41;;;;;;;4.28;2.50;;;;;;;;;;4139337;34;20210;-62
2022/04/21 11:05:22;;;;;;;2.62;2.28;;;;;;;;;;4138871;34;20083;-62
2022/04/21 11:07:56;;;;;;;6.28;2.90;;;;;;;;;;4151233;34;20138;-63
2022/04/21 11:10:45;;;;;;;3.55;2.42;;;;;;;;;;4127407;34;20204;-63
2022/04/21 11:13:18;;;;;;;3.58;2.85;;;;;;;;;;4151312;34;20131;-63
2022/04/21 11:15:44;;;;;;;4.40;3.60;;;;;;;;;;4138408;34;20615;-63
2022/04/21 11:18:12;;;;;;;4.00;3.12;;;;;;;;;;4151267;34;20095;-63
2022/04/21 11:20:39;;;;;;;3.58;2.58;;;;;;;;;;4151170;34;20202;-64
2022/04/21 11:23:09;;;;;;;3.20;2.40;;;;;;;;;;4150978;34;20689;-64
2022/04/21 11:25:35;;;;;;;5.22;2.40;;;;;;;;;;4151174;34;20107;-64
2022/04/21 11:28:02;;;;;;;3.28;2.25;;;;;;;;;;4151005;34;20195;-64
2022/04/21 11:30:31;;;;;;;2.33;2.05;;;;;;;;;;4150943;34;20603;-64
2022/04/21 11:32:57;;;;;;;3.17;2.50;;;;;;;;;;4138524;34;20129;-64
2022/04/21 11:35:24;;;;;;;3.20;2.65;;;;;;;;;;4151100;34;20603;-64
2022/04/21 11:37:57;;;;;;;6.53;3.92;;;;;;;;;;4151099;34;20182;-64
2022/04/21 11:40:31;;;;;;;8.57;5.43;;;;;;;;;;4151183;34;20112;-64
2022/04/21 11:43:02;;;;;;;13.88;6.28;;;;;;;;;;4150867;34;20146;-64
2022/04/21 11:45:35;;;;;;;11.57;5.07;;;;;;;;;;4151212;34;20206;-64
2022/04/21 11:48:01;;;;;;;4.78;3.03;;;;;;;;;;4150857;34;20171;-63
2022/04/21 11:50:29;;;;;;;7.87;1.95;;;;;;;;;;4150828;34;20107;-64
2022/04/21 11:52:57;;;;;;;3.70;1.95;;;;;;;;;;4150801;34;20115;-64
2022/04/21 11:55:28;;;;;;;1.40;1.30;;;;;;;;;;4150732;34;20122;-64
2022/04/21 11:57:55;;;;;;;10.43;4.90;;;;;;;;;;4150997;34;20127;-63
2022/04/21 12:08:44;;;;;;;6.70;4.50;;;;;;;;;;4139934;34;20163;-65
2022/04/21 12:11:12;;;;;;;7.00;4.47;;;;;;;;;;4138092;34;20111;-63
2022/04/21 12:13:38;;;;;;;4.68;3.00;;;;;;;;;;4150504;34;20523;-63
2022/04/21 12:16:05;;;;;;;3.80;2.97;;;;;;;;;;4150617;34;20099;-64
2022/04/21 12:18:47;;;;;;;4.97;3.60;;;;;;;;;;4149457;34;20207;-63
2022/04/21 12:21:13;;;;;;;5.43;3.50;;;;;;;;;;4137938;34;20107;-64
2022/04/21 12:23:40;;;;;;;9.82;5.90;;;;;;;;;;4150594;34;20127;-64
2022/04/21 12:26:07;;;;;;;4.30;3.53;;;;;;;;;;4138106;34;20135;-62
2022/04/21 12:28:47;;;;;;;4.28;3.47;;;;;;;;;;4137909;34;20102;-64
2022/04/21 12:31:18;;;;;;;5.30;3.40;;;;;;;;;;4150539;34;20496;-62
2022/04/21 12:33:44;;;;;;;4.18;3.40;;;;;;;;;;4137793;34;20535;-61
2022/04/21 12:36:10;;;;;;;3.83;3.00;;;;;;;;;;4150522;34;20139;-61
2022/04/21 12:39:09;;;;;;;9.48;5.15;;;;;;;;;;4150288;34;20511;-62
2022/04/21 12:41:35;;;;;;;8.30;5.70;;;;;;;;;;4123077;34;20127;-61
2022/04/21 12:44:02;;;;;;;10.25;5.12;;;;;;;;;;4149261;34;20123;-61
2022/04/21 12:46:28;;;;;;;11.00;6.07;;;;;;;;;;4150658;34;20111;-61
2022/04/21 12:48:54;;;;;;;9.10;5.22;;;;;;;;;;4150341;34;20181;-61
2022/04/21 12:51:21;;;;;;;6.87;5.00;;;;;;;;;;4150294;34;20195;-62
2022/04/21 12:53:57;;;;;;;5.32;3.67;;;;;;;;;;4150201;34;20106;-63
2022/04/21 12:56:34;;;;;;;6.43;3.05;;;;;;;;;;4150333;34;20127;-62
2022/04/21 12:59:01;;;;;;;3.65;2.75;;;;;;;;;;4150561;34;20121;-61
2022/04/21 13:01:27;;;;;;;3.83;2.90;;;;;;;;;;4150264;34;20175;-62
2022/04/21 13:03:53;;;;;;;4.07;2.50;;;;;;;;;;4150395;34;20135;-62
2022/04/21 13:06:27;;;;;;;4.30;2.72;;;;;;;;;;4137699;34;20099;-64
2022/04/21 13:08:55;;;;;;;4.53;2.47;;;;;;;;;;4150222;34;20213;-64
2022/04/21 13:11:21;;;;;;;4.32;2.50;;;;;;;;;;4148805;34;20126;-65
2022/04/21 13:13:47;;;;;;;4.28;2.72;;;;;;;;;;4150079;34;20208;-63
2022/04/21 13:16:13;;;;;;;2.90;2.37;;;;;;;;;;4149923;34;20593;-64
2022/04/21 13:18:39;;;;;;;7.05;4.57;;;;;;;;;;4148661;34;20114;-64
2022/04/21 13:23:50;;;;;;;6.25;3.70;;;;;;;;;;4149839;34;20127;-63
2022/04/21 13:26:16;;;;;;;4.80;3.40;;;;;;;;;;4150045;34;20103;-63
2022/04/21 13:28:42;;;;;;;2.95;2.50;;;;;;;;;;4150073;34;20527;-64
2022/04/21 13:33:52;;;;;;;3.33;2.55;;;;;;;;;;4150162;34;20215;-62
2022/04/21 13:36:18;;;;;;;4.43;2.80;;;;;;;;;;4149931;34;20210;-61
2022/04/21 13:38:44;;;;;;;3.90;2.55;;;;;;;;;;4115041;34;20099;-61
2022/04/21 13:41:11;;;;;;;5.50;3.50;;;;;;;;;;4149974;34;20134;-62
2022/04/21 13:43:36;;;;;;;4.75;3.55;;;;;;;;;;4150170;34;20143;-62
2022/04/21 13:46:02;;;;;;;3.85;2.85;;;;;;;;;;4148637;34;20107;-65
2022/04/21 13:48:28;;;;;;;3.72;3.03;;;;;;;;;;4148436;34;20106;-67
2022/04/21 13:50:55;;;;;;;4.32;3.50;;;;;;;;;;4149819;34;20223;-66
2022/04/21 13:53:21;;;;;;;3.92;2.90;;;;;;;;;;4149829;34;20095;-65
2022/04/21 13:55:47;;;;;;;4.32;2.70;;;;;;;;;;4149658;34;20448;-65
2022/04/21 13:58:14;;;;;;;4.65;2.90;;;;;;;;;;4149750;34;20183;-66
2022/04/21 14:00:44;;;;;;;4.15;2.17;;;;;;;;;;4148256;34;20511;-66
2022/04/21 14:03:11;;;;;;;3.65;2.58;;;;;;;;;;4149750;34;20514;-66
2022/04/21 14:05:37;;;;;;;3.17;2.40;;;;;;;;;;4149659;34;20102;-66
2022/04/21 14:08:04;;;;;;;5.32;3.20;;;;;;;;;;4149674;34;20181;-66
2022/04/21 14:10:30;;;;;;;4.65;2.30;;;;;;;;;;4137050;34;20114;-65
2022/04/21 14:12:56;;;;;;;3.58;2.30;;;;;;;;;;4137142;34;20549;-65
2022/04/21 14:15:24;;;;;;;3.85;2.55;;;;;;;;;;4149541;34;20114;-65
2022/04/21 14:17:50;;;;;;;3.20;2.03;;;;;;;;;;4149647;34;20512;-64
2022/04/21 14:20:16;;;;;;;3.33;2.08;;;;;;;;;;4149777;34;20091;-65
2022/04/21 14:22:42;;;;;;;3.45;2.37;;;;;;;;;;4149470;34;20203;-65
2022/04/21 14:25:09;;;;;;;3.75;2.90;;;;;;;;;;4149461;34;20202;-66
2022/04/21 14:27:34;;;;;;;5.80;3.37;;;;;;;;;;4148995;34;20126;-66
2022/04/21 14:30:01;;;;;;;5.32;3.90;;;;;;;;;;4149635;34;20190;-67
2022/04/21 14:32:27;;;;;;;5.35;4.20;;;;;;;;;;4148455;34;20593;-65
2022/04/21 14:34:53;;;;;;;4.70;4.20;;;;;;;;;;4149457;34;20095;-64
2022/04/21 14:44:04;;;;;;;4.32;3.60;;;;;;;;;;4135981;34;20186;-63
2022/04/21 14:45:36;;;;;;;3.70;2.67;;;;;;;;;;4149764;34;20129;-63
2022/04/21 14:48:03;;;;;;;3.85;3.20;;;;;;;;;;4137130;34;20170;-63
2022/04/21 14:50:29;;;;;;;5.55;3.78;;;;;;;;;;4149560;34;20121;-61
2022/04/21 14:52:55;;;;;;;5.25;3.92;;;;;;;;;;4136856;34;20370;-60
2022/04/21 14:55:21;;;;;;;4.37;3.50;;;;;;;;;;4149777;34;20115;-64
2022/04/21 14:57:48;;;;;;;6.15;4.53;;;;;;;;;;4147516;34;20114;-63
2022/04/21 15:00:14;;;;;;;6.15;4.18;;;;;;;;;;4138897;34;20105;-64
2022/04/21 15:02:40;;;;;;;8.38;5.12;;;;;;;;;;4160747;34;20134;-67
2022/04/21 15:05:07;;;;;;;10.45;5.85;;;;;;;;;;4146143;34;20199;-65
2022/04/21 15:07:33;;;;;;;8.15;5.40;;;;;;;;;;4148382;34;20107;-65
2022/04/21 15:09:59;;;;;;;5.40;4.18;;;;;;;;;;4149082;34;20139;-64
2022/04/21 15:12:25;;;;;;;4.43;3.30;;;;;;;;;;4136380;34;20116;-65
2022/04/21 15:14:51;;;;;;;4.07;3.40;;;;;;;;;;4148749;34;20119;-65
2022/04/21 15:17:17;;;;;;;5.35;3.10;;;;;;;;;;4147495;34;20119;-65
2022/04/21 15:19:47;;;;;;;5.72;3.62;;;;;;;;;;4148565;34;20460;-64
2022/04/21 15:22:15;;;;;;;4.10;3.28;;;;;;;;;;4148825;34;20193;-63
2022/04/21 15:24:42;;;;;;;3.45;3.10;;;;;;;;;;4148606;34;20175;-63
2022/04/21 15:27:08;;;;;;;5.55;3.42;;;;;;;;;;4148837;34;20222;-66
2022/04/21 15:29:34;;;;;;;4.12;3.60;;;;;;;;;;4147367;34;20115;-65
2022/04/21 15:32:00;;;;;;;4.57;3.60;;;;;;;;;;4148439;34;20134;-61
2022/04/21 15:34:26;;;;;;;6.40;4.87;;;;;;;;;;4148469;34;20114;-62
2022/04/21 15:36:52;;;;;;;5.95;4.50;;;;;;;;;;4136077;34;20146;-62
2022/04/21 15:39:18;;;;;;;6.28;4.68;;;;;;;;;;4149978;34;20123;-61
2022/04/21 15:41:44;;;;;;;6.03;5.22;;;;;;;;;;4150531;34;20115;-62
2022/04/21 15:44:10;;;;;;;8.35;6.47;;;;;;;;;;4150326;34;20119;-63
2022/04/21 15:46:37;;;;;;;9.30;6.87;;;;;;;;;;4150720;34;20203;-62
2022/04/21 15:49:02;;;;;;;16.05;10.13;;;;;;;;;;4150697;34;20115;-63
2022/04/21 15:51:29;;;;;;;8.15;5.97;;;;;;;;;;4151110;34;20118;-63
2022/04/21 15:59:24;;;;;;;9.98;5.93;;;;;;;;;;4150640;34;20103;-67
2022/04/21 16:01:50;;;;;;;6.05;5.40;;;;;;;;;;4149165;34;20191;-67
2022/04/21 16:04:17;;;;;;;7.62;5.30;;;;;;;;;;4150709;34;20123;-65
2022/04/21 16:06:43;;;;;;;8.18;5.22;;;;;;;;;;4136749;34;20103;-65
2022/04/21 16:09:10;;;;;;;7.32;4.95;;;;;;;;;;4148468;34;20110;-64
2022/04/21 16:11:36;;;;;;;6.62;5.53;;;;;;;;;;4137561;34;20188;-66
2022/04/21 16:14:02;;;;;;;8.05;5.57;;;;;;;;;;4131130;34;20091;-63
2022/04/21 16:16:29;;;;;;;10.75;6.30;;;;;;;;;;4138071;34;20196;-63
2022/04/21 16:18:56;;;;;;;8.18;5.78;;;;;;;;;;4150508;34;20119;-62
2022/04/21 16:21:22;;;;;;;6.30;5.35;;;;;;;;;;4137750;34;20111;-67